sensor_id;sensor_type;location;lat;lon;timestamp;P1;durP1;ratioP1;P2;durP2;ratioP2
29728;SDS011;20055;51.498;11.960;2024-01-06T00:02:06;16.77;;;6.00;;
29728;SDS011;20055;51.498;11.960;2024-01-06T00:04:32;15.35;;;5.97;;
29728;SDS011;20055;51.498;11.960;2024-01-06T00:06:58;17.13;;;5.53;;
29728;SDS011;20055;51.498;11.960;2024-01-06T00:09:25;16.23;;;5.90;;
29728;SDS011;20055;51.498;11.960;2024-01-06T00:11:51;20.42;;;6.82;;
29728;SDS011;20055;51.498;11.960;2024-01-06T00:14:17;16.88;;;6.07;;
29728;SDS011;20055;51.498;11.960;2024-01-06T00:16:43;16.95;;;6.22;;
29728;SDS011;20055;51.498;11.960;2024-01-06T00:19:10;20.98;;;7.57;;
29728;SDS011;20055;51.498;11.960;2024-01-06T00:21:36;23.38;;;7.30;;
29728;SDS011;20055;51.498;11.960;2024-01-06T00:24:02;18.85;;;6.88;;
29728;SDS011;20055;51.498;11.960;2024-01-06T00:26:29;19.73;;;7.53;;
29728;SDS011;20055;51.498;11.960;2024-01-06T00:28:55;13.43;;;6.50;;
29728;SDS011;20055;51.498;11.960;2024-01-06T00:31:21;15.05;;;5.40;;
29728;SDS011;20055;51.498;11.960;2024-01-06T00:33:48;11.85;;;5.28;;
29728;SDS011;20055;51.498;11.960;2024-01-06T00:36:14;12.23;;;4.85;;
29728;SDS011;20055;51.498;11.960;2024-01-06T00:38:40;12.20;;;3.97;;
29728;SDS011;20055;51.498;11.960;2024-01-06T00:41:06;11.45;;;4.47;;
29728;SDS011;20055;51.498;11.960;2024-01-06T00:43:32;16.05;;;6.15;;
29728;SDS011;20055;51.498;11.960;2024-01-06T00:45:59;19.40;;;6.13;;
29728;SDS011;20055;51.498;11.960;2024-01-06T00:48:25;16.88;;;5.03;;
29728;SDS011;20055;51.498;11.960;2024-01-06T00:50:51;13.07;;;5.57;;
29728;SDS011;20055;51.498;11.960;2024-01-06T00:53:17;15.27;;;5.25;;
29728;SDS011;20055;51.498;11.960;2024-01-06T00:55:44;15.38;;;4.68;;
29728;SDS011;20055;51.498;11.960;2024-01-06T00:58:10;14.40;;;4.57;;
29728;SDS011;20055;51.498;11.960;2024-01-06T01:00:36;15.13;;;5.05;;
29728;SDS011;20055;51.498;11.960;2024-01-06T01:03:03;12.55;;;4.90;;
29728;SDS011;20055;51.498;11.960;2024-01-06T01:05:29;8.82;;;4.53;;
29728;SDS011;20055;51.498;11.960;2024-01-06T01:07:55;12.32;;;4.30;;
29728;SDS011;20055;51.498;11.960;2024-01-06T01:10:21;12.35;;;4.40;;
29728;SDS011;20055;51.498;11.960;2024-01-06T01:12:47;12.25;;;5.10;;
29728;SDS011;20055;51.498;11.960;2024-01-06T01:15:13;11.70;;;4.95;;
29728;SDS011;20055;51.498;11.960;2024-01-06T01:17:40;12.82;;;4.53;;
29728;SDS011;20055;51.498;11.960;2024-01-06T01:20:06;13.48;;;4.32;;
29728;SDS011;20055;51.498;11.960;2024-01-06T01:22:33;19.92;;;5.05;;
29728;SDS011;20055;51.498;11.960;2024-01-06T01:24:59;13.07;;;4.78;;
29728;SDS011;20055;51.498;11.960;2024-01-06T01:27:31;12.05;;;4.68;;
29728;SDS011;20055;51.498;11.960;2024-01-06T01:29:57;16.88;;;5.28;;
29728;SDS011;20055;51.498;11.960;2024-01-06T01:32:23;16.13;;;4.93;;
29728;SDS011;20055;51.498;11.960;2024-01-06T01:34:50;15.80;;;5.05;;
29728;SDS011;20055;51.498;11.960;2024-01-06T01:37:16;11.15;;;4.72;;
29728;SDS011;20055;51.498;11.960;2024-01-06T01:39:42;8.02;;;4.10;;
29728;SDS011;20055;51.498;11.960;2024-01-06T01:42:08;12.45;;;4.60;;
29728;SDS011;20055;51.498;11.960;2024-01-06T01:44:35;9.38;;;4.10;;
29728;SDS011;20055;51.498;11.960;2024-01-06T01:47:02;11.70;;;3.00;;
29728;SDS011;20055;51.498;11.960;2024-01-06T01:49:30;13.32;;;4.88;;
29728;SDS011;20055;51.498;11.960;2024-01-06T01:51:58;11.70;;;3.47;;
29728;SDS011;20055;51.498;11.960;2024-01-06T01:54:24;10.95;;;3.17;;
29728;SDS011;20055;51.498;11.960;2024-01-06T01:56:52;7.97;;;3.80;;
29728;SDS011;20055;51.498;11.960;2024-01-06T01:59:18;18.52;;;4.05;;
29728;SDS011;20055;51.498;11.960;2024-01-06T02:01:45;7.65;;;3.85;;
29728;SDS011;20055;51.498;11.960;2024-01-06T02:04:12;8.15;;;3.38;;
29728;SDS011;20055;51.498;11.960;2024-01-06T02:06:38;6.75;;;3.22;;
29728;SDS011;20055;51.498;11.960;2024-01-06T02:09:05;10.50;;;3.85;;
29728;SDS011;20055;51.498;11.960;2024-01-06T02:11:32;11.85;;;3.72;;
29728;SDS011;20055;51.498;11.960;2024-01-06T02:13:58;20.27;;;3.92;;
29728;SDS011;20055;51.498;11.960;2024-01-06T02:16:24;8.73;;;3.95;;
29728;SDS011;20055;51.498;11.960;2024-01-06T02:18:50;8.98;;;4.50;;
29728;SDS011;20055;51.498;11.960;2024-01-06T02:21:17;8.85;;;3.40;;
29728;SDS011;20055;51.498;11.960;2024-01-06T02:23:45;14.07;;;3.85;;
29728;SDS011;20055;51.498;11.960;2024-01-06T02:26:13;13.60;;;3.72;;
29728;SDS011;20055;51.498;11.960;2024-01-06T02:28:40;12.93;;;3.78;;
29728;SDS011;20055;51.498;11.960;2024-01-06T02:31:06;13.85;;;4.65;;
29728;SDS011;20055;51.498;11.960;2024-01-06T02:33:33;10.35;;;4.18;;
29728;SDS011;20055;51.498;11.960;2024-01-06T02:35:59;9.43;;;3.28;;
29728;SDS011;20055;51.498;11.960;2024-01-06T02:38:25;8.48;;;3.55;;
29728;SDS011;20055;51.498;11.960;2024-01-06T02:40:52;11.90;;;3.65;;
29728;SDS011;20055;51.498;11.960;2024-01-06T02:43:19;10.63;;;3.75;;
29728;SDS011;20055;51.498;11.960;2024-01-06T02:45:45;10.93;;;4.50;;
29728;SDS011;20055;51.498;11.960;2024-01-06T02:48:12;16.20;;;6.03;;
29728;SDS011;20055;51.498;11.960;2024-01-06T02:50:38;8.38;;;4.15;;
29728;SDS011;20055;51.498;11.960;2024-01-06T02:53:04;12.82;;;4.55;;
29728;SDS011;20055;51.498;11.960;2024-01-06T02:55:30;12.40;;;4.63;;
29728;SDS011;20055;51.498;11.960;2024-01-06T02:57:57;16.10;;;4.60;;
29728;SDS011;20055;51.498;11.960;2024-01-06T03:00:23;9.60;;;4.43;;
29728;SDS011;20055;51.498;11.960;2024-01-06T03:02:49;11.77;;;4.80;;
29728;SDS011;20055;51.498;11.960;2024-01-06T03:05:15;7.07;;;3.85;;
29728;SDS011;20055;51.498;11.960;2024-01-06T03:07:42;11.25;;;4.50;;
29728;SDS011;20055;51.498;11.960;2024-01-06T03:10:10;19.60;;;5.45;;
29728;SDS011;20055;51.498;11.960;2024-01-06T03:12:36;25.27;;;6.53;;
29728;SDS011;20055;51.498;11.960;2024-01-06T03:15:02;12.35;;;6.20;;
29728;SDS011;20055;51.498;11.960;2024-01-06T03:17:29;8.35;;;4.55;;
29728;SDS011;20055;51.498;11.960;2024-01-06T03:19:56;14.02;;;4.78;;
29728;SDS011;20055;51.498;11.960;2024-01-06T03:22:23;12.70;;;5.70;;
29728;SDS011;20055;51.498;11.960;2024-01-06T03:24:49;16.60;;;5.82;;
29728;SDS011;20055;51.498;11.960;2024-01-06T03:27:15;24.02;;;6.50;;
29728;SDS011;20055;51.498;11.960;2024-01-06T03:29:41;14.57;;;5.80;;
29728;SDS011;20055;51.498;11.960;2024-01-06T03:32:08;11.40;;;6.07;;
29728;SDS011;20055;51.498;11.960;2024-01-06T03:34:34;20.35;;;7.50;;
29728;SDS011;20055;51.498;11.960;2024-01-06T03:37:00;16.52;;;6.32;;
29728;SDS011;20055;51.498;11.960;2024-01-06T03:39:26;18.02;;;6.68;;
29728;SDS011;20055;51.498;11.960;2024-01-06T03:41:53;13.50;;;6.13;;
29728;SDS011;20055;51.498;11.960;2024-01-06T03:44:19;10.63;;;5.88;;
29728;SDS011;20055;51.498;11.960;2024-01-06T03:46:45;17.20;;;7.65;;
29728;SDS011;20055;51.498;11.960;2024-01-06T03:49:11;20.90;;;7.03;;
29728;SDS011;20055;51.498;11.960;2024-01-06T03:51:38;16.25;;;6.72;;
29728;SDS011;20055;51.498;11.960;2024-01-06T03:54:04;16.08;;;6.10;;
29728;SDS011;20055;51.498;11.960;2024-01-06T03:56:30;12.00;;;5.82;;
29728;SDS011;20055;51.498;11.960;2024-01-06T03:58:56;12.18;;;5.32;;
29728;SDS011;20055;51.498;11.960;2024-01-06T04:01:23;11.05;;;5.65;;
29728;SDS011;20055;51.498;11.960;2024-01-06T04:03:49;15.48;;;6.20;;
29728;SDS011;20055;51.498;11.960;2024-01-06T04:06:15;16.85;;;6.20;;
29728;SDS011;20055;51.498;11.960;2024-01-06T04:08:41;13.95;;;6.10;;
29728;SDS011;20055;51.498;11.960;2024-01-06T04:11:08;17.15;;;6.32;;
29728;SDS011;20055;51.498;11.960;2024-01-06T04:13:34;16.23;;;7.18;;
29728;SDS011;20055;51.498;11.960;2024-01-06T04:16:00;19.92;;;5.95;;
29728;SDS011;20055;51.498;11.960;2024-01-06T04:18:26;13.38;;;5.95;;
29728;SDS011;20055;51.498;11.960;2024-01-06T04:20:52;17.80;;;7.10;;
29728;SDS011;20055;51.498;11.960;2024-01-06T04:23:19;25.77;;;6.45;;
29728;SDS011;20055;51.498;11.960;2024-01-06T04:25:45;18.00;;;7.05;;
29728;SDS011;20055;51.498;11.960;2024-01-06T04:28:11;14.00;;;6.10;;
29728;SDS011;20055;51.498;11.960;2024-01-06T04:30:37;15.30;;;5.85;;
29728;SDS011;20055;51.498;11.960;2024-01-06T04:33:04;17.85;;;6.05;;
29728;SDS011;20055;51.498;11.960;2024-01-06T04:35:30;12.32;;;5.90;;
29728;SDS011;20055;51.498;11.960;2024-01-06T04:37:56;14.35;;;5.65;;
29728;SDS011;20055;51.498;11.960;2024-01-06T04:40:22;15.90;;;7.60;;
29728;SDS011;20055;51.498;11.960;2024-01-06T04:42:49;16.80;;;6.97;;
29728;SDS011;20055;51.498;11.960;2024-01-06T04:45:15;15.00;;;6.78;;
29728;SDS011;20055;51.498;11.960;2024-01-06T04:47:41;13.60;;;6.25;;
29728;SDS011;20055;51.498;11.960;2024-01-06T04:50:07;12.95;;;5.65;;
29728;SDS011;20055;51.498;11.960;2024-01-06T04:52:34;9.90;;;5.53;;
29728;SDS011;20055;51.498;11.960;2024-01-06T04:55:00;11.60;;;5.63;;
29728;SDS011;20055;51.498;11.960;2024-01-06T04:57:27;15.45;;;5.80;;
29728;SDS011;20055;51.498;11.960;2024-01-06T04:59:54;9.77;;;4.70;;
29728;SDS011;20055;51.498;11.960;2024-01-06T05:02:20;13.18;;;5.50;;
29728;SDS011;20055;51.498;11.960;2024-01-06T05:04:46;13.80;;;5.32;;
29728;SDS011;20055;51.498;11.960;2024-01-06T05:07:12;13.50;;;5.70;;
29728;SDS011;20055;51.498;11.960;2024-01-06T05:09:38;20.05;;;6.53;;
29728;SDS011;20055;51.498;11.960;2024-01-06T05:12:05;14.68;;;5.72;;
29728;SDS011;20055;51.498;11.960;2024-01-06T05:14:31;7.70;;;4.47;;
29728;SDS011;20055;51.498;11.960;2024-01-06T05:16:58;13.30;;;5.25;;
29728;SDS011;20055;51.498;11.960;2024-01-06T05:19:24;15.60;;;5.93;;
29728;SDS011;20055;51.498;11.960;2024-01-06T05:21:50;10.75;;;5.90;;
29728;SDS011;20055;51.498;11.960;2024-01-06T05:24:18;16.90;;;5.85;;
29728;SDS011;20055;51.498;11.960;2024-01-06T05:26:45;15.27;;;5.78;;
29728;SDS011;20055;51.498;11.960;2024-01-06T05:29:11;15.70;;;5.70;;
29728;SDS011;20055;51.498;11.960;2024-01-06T05:31:37;13.32;;;5.35;;
29728;SDS011;20055;51.498;11.960;2024-01-06T05:34:03;16.55;;;5.68;;
29728;SDS011;20055;51.498;11.960;2024-01-06T05:36:30;14.68;;;4.90;;
29728;SDS011;20055;51.498;11.960;2024-01-06T05:38:56;17.55;;;6.03;;
29728;SDS011;20055;51.498;11.960;2024-01-06T05:41:22;12.75;;;5.35;;
29728;SDS011;20055;51.498;11.960;2024-01-06T05:43:49;11.48;;;4.55;;
29728;SDS011;20055;51.498;11.960;2024-01-06T05:46:22;15.77;;;5.50;;
29728;SDS011;20055;51.498;11.960;2024-01-06T05:48:48;14.65;;;6.20;;
29728;SDS011;20055;51.498;11.960;2024-01-06T05:51:14;12.40;;;6.18;;
29728;SDS011;20055;51.498;11.960;2024-01-06T05:53:40;16.80;;;6.10;;
29728;SDS011;20055;51.498;11.960;2024-01-06T05:56:07;12.93;;;5.10;;
29728;SDS011;20055;51.498;11.960;2024-01-06T05:58:35;13.68;;;5.70;;
29728;SDS011;20055;51.498;11.960;2024-01-06T06:01:01;11.15;;;5.47;;
29728;SDS011;20055;51.498;11.960;2024-01-06T06:03:27;10.75;;;5.05;;
29728;SDS011;20055;51.498;11.960;2024-01-06T06:05:53;21.77;;;5.78;;
29728;SDS011;20055;51.498;11.960;2024-01-06T06:08:20;11.18;;;5.72;;
29728;SDS011;20055;51.498;11.960;2024-01-06T06:10:46;15.02;;;5.28;;
29728;SDS011;20055;51.498;11.960;2024-01-06T06:13:30;10.82;;;4.53;;
29728;SDS011;20055;51.498;11.960;2024-01-06T06:15:56;13.90;;;5.38;;
29728;SDS011;20055;51.498;11.960;2024-01-06T06:18:23;15.90;;;6.40;;
29728;SDS011;20055;51.498;11.960;2024-01-06T06:20:49;11.00;;;5.50;;
29728;SDS011;20055;51.498;11.960;2024-01-06T06:23:15;17.35;;;6.97;;
29728;SDS011;20055;51.498;11.960;2024-01-06T06:25:42;15.13;;;6.22;;
29728;SDS011;20055;51.498;11.960;2024-01-06T06:28:08;19.05;;;7.57;;
29728;SDS011;20055;51.498;11.960;2024-01-06T06:30:34;21.67;;;8.75;;
29728;SDS011;20055;51.498;11.960;2024-01-06T06:33:01;18.77;;;9.23;;
29728;SDS011;20055;51.498;11.960;2024-01-06T06:35:27;17.27;;;7.10;;
29728;SDS011;20055;51.498;11.960;2024-01-06T06:37:53;13.18;;;6.75;;
29728;SDS011;20055;51.498;11.960;2024-01-06T06:40:19;19.50;;;7.05;;
29728;SDS011;20055;51.498;11.960;2024-01-06T06:42:46;11.80;;;5.70;;
29728;SDS011;20055;51.498;11.960;2024-01-06T06:45:12;12.27;;;5.75;;
29728;SDS011;20055;51.498;11.960;2024-01-06T06:47:38;10.02;;;5.38;;
29728;SDS011;20055;51.498;11.960;2024-01-06T06:50:05;15.75;;;5.25;;
29728;SDS011;20055;51.498;11.960;2024-01-06T06:52:31;15.23;;;5.50;;
29728;SDS011;20055;51.498;11.960;2024-01-06T06:54:57;13.85;;;5.55;;
29728;SDS011;20055;51.498;11.960;2024-01-06T06:57:23;17.85;;;5.10;;
29728;SDS011;20055;51.498;11.960;2024-01-06T06:59:50;9.63;;;5.28;;
29728;SDS011;20055;51.498;11.960;2024-01-06T07:02:16;18.30;;;6.80;;
29728;SDS011;20055;51.498;11.960;2024-01-06T07:04:43;18.63;;;6.45;;
29728;SDS011;20055;51.498;11.960;2024-01-06T07:07:09;15.10;;;6.07;;
29728;SDS011;20055;51.498;11.960;2024-01-06T07:09:35;16.38;;;6.68;;
29728;SDS011;20055;51.498;11.960;2024-01-06T07:12:01;20.75;;;7.38;;
29728;SDS011;20055;51.498;11.960;2024-01-06T07:14:28;17.77;;;6.78;;
29728;SDS011;20055;51.498;11.960;2024-01-06T07:16:54;13.57;;;6.47;;
29728;SDS011;20055;51.498;11.960;2024-01-06T07:19:20;21.25;;;8.05;;
29728;SDS011;20055;51.498;11.960;2024-01-06T07:21:46;16.65;;;7.75;;
29728;SDS011;20055;51.498;11.960;2024-01-06T07:24:12;15.85;;;7.63;;
29728;SDS011;20055;51.498;11.960;2024-01-06T07:26:39;17.75;;;7.18;;
29728;SDS011;20055;51.498;11.960;2024-01-06T07:29:05;21.00;;;7.82;;
29728;SDS011;20055;51.498;11.960;2024-01-06T07:31:32;16.70;;;7.97;;
29728;SDS011;20055;51.498;11.960;2024-01-06T07:33:59;22.95;;;9.60;;
29728;SDS011;20055;51.498;11.960;2024-01-06T07:36:26;24.95;;;9.52;;
29728;SDS011;20055;51.498;11.960;2024-01-06T07:38:52;21.08;;;8.48;;
29728;SDS011;20055;51.498;11.960;2024-01-06T07:41:19;22.00;;;9.15;;
29728;SDS011;20055;51.498;11.960;2024-01-06T07:43:45;19.33;;;10.20;;
29728;SDS011;20055;51.498;11.960;2024-01-06T07:46:11;16.13;;;7.82;;
29728;SDS011;20055;51.498;11.960;2024-01-06T07:48:38;18.08;;;7.32;;
29728;SDS011;20055;51.498;11.960;2024-01-06T07:51:05;16.13;;;6.78;;
29728;SDS011;20055;51.498;11.960;2024-01-06T07:53:31;18.50;;;7.05;;
29728;SDS011;20055;51.498;11.960;2024-01-06T07:55:57;18.70;;;7.40;;
29728;SDS011;20055;51.498;11.960;2024-01-06T07:58:23;16.02;;;7.80;;
29728;SDS011;20055;51.498;11.960;2024-01-06T08:00:49;14.25;;;7.65;;
29728;SDS011;20055;51.498;11.960;2024-01-06T08:03:16;15.30;;;8.25;;
29728;SDS011;20055;51.498;11.960;2024-01-06T08:05:42;14.23;;;6.65;;
29728;SDS011;20055;51.498;11.960;2024-01-06T08:08:09;14.98;;;6.55;;
29728;SDS011;20055;51.498;11.960;2024-01-06T08:10:35;14.48;;;6.95;;
29728;SDS011;20055;51.498;11.960;2024-01-06T08:13:01;15.18;;;7.18;;
29728;SDS011;20055;51.498;11.960;2024-01-06T08:15:28;15.57;;;7.10;;
29728;SDS011;20055;51.498;11.960;2024-01-06T08:17:54;18.98;;;6.28;;
29728;SDS011;20055;51.498;11.960;2024-01-06T08:20:20;17.30;;;7.30;;
29728;SDS011;20055;51.498;11.960;2024-01-06T08:22:46;21.58;;;7.15;;
29728;SDS011;20055;51.498;11.960;2024-01-06T08:25:12;13.32;;;6.80;;
29728;SDS011;20055;51.498;11.960;2024-01-06T08:27:39;14.13;;;7.35;;
29728;SDS011;20055;51.498;11.960;2024-01-06T08:30:05;16.13;;;7.32;;
29728;SDS011;20055;51.498;11.960;2024-01-06T08:32:32;16.63;;;6.60;;
29728;SDS011;20055;51.498;11.960;2024-01-06T08:34:58;19.58;;;8.07;;
29728;SDS011;20055;51.498;11.960;2024-01-06T08:37:25;31.02;;;10.05;;
29728;SDS011;20055;51.498;11.960;2024-01-06T08:39:51;26.27;;;9.63;;
29728;SDS011;20055;51.498;11.960;2024-01-06T08:42:17;22.00;;;9.23;;
29728;SDS011;20055;51.498;11.960;2024-01-06T08:44:44;22.23;;;8.77;;
29728;SDS011;20055;51.498;11.960;2024-01-06T08:47:10;19.23;;;7.53;;
29728;SDS011;20055;51.498;11.960;2024-01-06T08:49:37;23.92;;;8.55;;
29728;SDS011;20055;51.498;11.960;2024-01-06T08:52:04;21.08;;;10.23;;
29728;SDS011;20055;51.498;11.960;2024-01-06T08:54:31;22.92;;;7.88;;
29728;SDS011;20055;51.498;11.960;2024-01-06T08:56:57;21.33;;;8.65;;
29728;SDS011;20055;51.498;11.960;2024-01-06T08:59:24;24.05;;;9.40;;
29728;SDS011;20055;51.498;11.960;2024-01-06T09:01:50;21.40;;;9.18;;
29728;SDS011;20055;51.498;11.960;2024-01-06T09:04:16;18.08;;;8.02;;
29728;SDS011;20055;51.498;11.960;2024-01-06T09:06:43;18.40;;;8.70;;
29728;SDS011;20055;51.498;11.960;2024-01-06T09:09:09;18.30;;;7.30;;
29728;SDS011;20055;51.498;11.960;2024-01-06T09:11:36;16.67;;;6.95;;
29728;SDS011;20055;51.498;11.960;2024-01-06T09:14:02;13.60;;;5.85;;
29728;SDS011;20055;51.498;11.960;2024-01-06T09:16:28;13.75;;;5.95;;
29728;SDS011;20055;51.498;11.960;2024-01-06T09:18:55;15.45;;;6.43;;
29728;SDS011;20055;51.498;11.960;2024-01-06T09:21:21;11.98;;;5.50;;
29728;SDS011;20055;51.498;11.960;2024-01-06T09:23:47;14.93;;;7.53;;
29728;SDS011;20055;51.498;11.960;2024-01-06T09:26:13;20.08;;;6.88;;
29728;SDS011;20055;51.498;11.960;2024-01-06T09:28:42;10.90;;;6.25;;
29728;SDS011;20055;51.498;11.960;2024-01-06T09:31:08;7.95;;;5.25;;
29728;SDS011;20055;51.498;11.960;2024-01-06T09:33:34;29.60;;;15.10;;
29728;SDS011;20055;51.498;11.960;2024-01-06T09:36:00;25.35;;;12.52;;
29728;SDS011;20055;51.498;11.960;2024-01-06T09:38:27;28.77;;;13.32;;
29728;SDS011;20055;51.498;11.960;2024-01-06T09:40:54;35.88;;;14.05;;
29728;SDS011;20055;51.498;11.960;2024-01-06T09:43:21;38.08;;;15.27;;
29728;SDS011;20055;51.498;11.960;2024-01-06T09:45:48;27.15;;;12.45;;
29728;SDS011;20055;51.498;11.960;2024-01-06T09:48:22;23.73;;;11.23;;
29728;SDS011;20055;51.498;11.960;2024-01-06T09:50:55;21.85;;;10.57;;
29728;SDS011;20055;51.498;11.960;2024-01-06T09:53:23;21.95;;;10.40;;
29728;SDS011;20055;51.498;11.960;2024-01-06T09:55:59;32.22;;;12.32;;
29728;SDS011;20055;51.498;11.960;2024-01-06T09:58:26;23.63;;;11.25;;
29728;SDS011;20055;51.498;11.960;2024-01-06T10:00:56;26.83;;;11.63;;
29728;SDS011;20055;51.498;11.960;2024-01-06T10:03:22;25.70;;;11.23;;
29728;SDS011;20055;51.498;11.960;2024-01-06T10:05:48;29.13;;;13.98;;
29728;SDS011;20055;51.498;11.960;2024-01-06T10:08:14;32.05;;;13.93;;
29728;SDS011;20055;51.498;11.960;2024-01-06T10:10:44;31.27;;;13.23;;
29728;SDS011;20055;51.498;11.960;2024-01-06T10:13:10;25.58;;;12.52;;
29728;SDS011;20055;51.498;11.960;2024-01-06T10:15:36;30.52;;;12.55;;
29728;SDS011;20055;51.498;11.960;2024-01-06T10:18:03;24.00;;;11.18;;
29728;SDS011;20055;51.498;11.960;2024-01-06T10:20:29;20.38;;;10.25;;
29728;SDS011;20055;51.498;11.960;2024-01-06T10:22:56;18.40;;;10.18;;
29728;SDS011;20055;51.498;11.960;2024-01-06T10:25:31;23.38;;;11.35;;
29728;SDS011;20055;51.498;11.960;2024-01-06T10:28:00;23.80;;;12.02;;
29728;SDS011;20055;51.498;11.960;2024-01-06T10:30:27;24.13;;;12.85;;
29728;SDS011;20055;51.498;11.960;2024-01-06T10:32:53;28.80;;;11.93;;
29728;SDS011;20055;51.498;11.960;2024-01-06T10:35:20;28.30;;;13.48;;
29728;SDS011;20055;51.498;11.960;2024-01-06T10:37:47;25.42;;;12.23;;
29728;SDS011;20055;51.498;11.960;2024-01-06T10:40:15;31.38;;;15.43;;
29728;SDS011;20055;51.498;11.960;2024-01-06T10:42:42;22.10;;;10.10;;
29728;SDS011;20055;51.498;11.960;2024-01-06T10:45:10;16.20;;;8.55;;
29728;SDS011;20055;51.498;11.960;2024-01-06T10:47:40;19.52;;;8.60;;
29728;SDS011;20055;51.498;11.960;2024-01-06T10:50:08;19.33;;;8.38;;
29728;SDS011;20055;51.498;11.960;2024-01-06T10:52:35;22.80;;;9.00;;
29728;SDS011;20055;51.498;11.960;2024-01-06T10:55:04;15.88;;;8.02;;
29728;SDS011;20055;51.498;11.960;2024-01-06T10:57:31;15.25;;;8.43;;
29728;SDS011;20055;51.498;11.960;2024-01-06T10:59:58;20.67;;;10.02;;
29728;SDS011;20055;51.498;11.960;2024-01-06T11:02:25;25.02;;;12.80;;
29728;SDS011;20055;51.498;11.960;2024-01-06T11:04:52;40.25;;;16.13;;
29728;SDS011;20055;51.498;11.960;2024-01-06T11:07:20;25.95;;;13.27;;
29728;SDS011;20055;51.498;11.960;2024-01-06T11:09:57;17.80;;;9.20;;
29728;SDS011;20055;51.498;11.960;2024-01-06T11:12:28;16.17;;;7.63;;
29728;SDS011;20055;51.498;11.960;2024-01-06T11:14:54;23.25;;;9.18;;
29728;SDS011;20055;51.498;11.960;2024-01-06T11:20:26;20.20;;;7.70;;
29728;SDS011;20055;51.498;11.960;2024-01-06T11:22:52;20.38;;;8.75;;
29728;SDS011;20055;51.498;11.960;2024-01-06T11:25:22;13.45;;;7.88;;
29728;SDS011;20055;51.498;11.960;2024-01-06T11:27:50;16.02;;;8.15;;
29728;SDS011;20055;51.498;11.960;2024-01-06T11:30:23;22.00;;;9.20;;
29728;SDS011;20055;51.498;11.960;2024-01-06T11:32:51;20.40;;;11.02;;
29728;SDS011;20055;51.498;11.960;2024-01-06T11:35:19;22.75;;;10.35;;
29728;SDS011;20055;51.498;11.960;2024-01-06T11:42:58;20.55;;;10.23;;
29728;SDS011;20055;51.498;11.960;2024-01-06T11:45:38;29.00;;;10.60;;
29728;SDS011;20055;51.498;11.960;2024-01-06T11:48:07;22.02;;;10.70;;
29728;SDS011;20055;51.498;11.960;2024-01-06T11:50:36;19.90;;;10.30;;
29728;SDS011;20055;51.498;11.960;2024-01-06T11:53:04;16.70;;;9.45;;
29728;SDS011;20055;51.498;11.960;2024-01-06T11:55:35;28.35;;;12.63;;
29728;SDS011;20055;51.498;11.960;2024-01-06T11:58:09;24.48;;;12.35;;
29728;SDS011;20055;51.498;11.960;2024-01-06T12:00:35;28.25;;;11.65;;
29728;SDS011;20055;51.498;11.960;2024-01-06T12:03:04;25.60;;;12.38;;
29728;SDS011;20055;51.498;11.960;2024-01-06T12:05:30;25.67;;;13.27;;
29728;SDS011;20055;51.498;11.960;2024-01-06T12:08:00;24.92;;;12.45;;
29728;SDS011;20055;51.498;11.960;2024-01-06T12:10:32;24.73;;;12.85;;
29728;SDS011;20055;51.498;11.960;2024-01-06T12:13:02;22.88;;;12.02;;
29728;SDS011;20055;51.498;11.960;2024-01-06T12:15:30;22.83;;;12.32;;
29728;SDS011;20055;51.498;11.960;2024-01-06T12:17:57;21.75;;;11.65;;
29728;SDS011;20055;51.498;11.960;2024-01-06T12:20:24;25.77;;;11.32;;
29728;SDS011;20055;51.498;11.960;2024-01-06T12:22:52;20.15;;;12.13;;
29728;SDS011;20055;51.498;11.960;2024-01-06T12:25:22;21.25;;;12.07;;
29728;SDS011;20055;51.498;11.960;2024-01-06T12:27:49;20.10;;;12.50;;
29728;SDS011;20055;51.498;11.960;2024-01-06T12:30:18;23.55;;;11.52;;
29728;SDS011;20055;51.498;11.960;2024-01-06T12:32:45;26.17;;;14.35;;
29728;SDS011;20055;51.498;11.960;2024-01-06T12:35:14;27.33;;;13.93;;
29728;SDS011;20055;51.498;11.960;2024-01-06T12:37:41;21.73;;;12.93;;
29728;SDS011;20055;51.498;11.960;2024-01-06T12:40:08;55.80;;;24.60;;
29728;SDS011;20055;51.498;11.960;2024-01-06T12:42:36;31.55;;;16.63;;
29728;SDS011;20055;51.498;11.960;2024-01-06T12:45:02;28.42;;;16.05;;
29728;SDS011;20055;51.498;11.960;2024-01-06T12:47:30;29.45;;;17.95;;
29728;SDS011;20055;51.498;11.960;2024-01-06T12:49:57;32.13;;;17.77;;
29728;SDS011;20055;51.498;11.960;2024-01-06T12:52:23;34.65;;;18.38;;
29728;SDS011;20055;51.498;11.960;2024-01-06T12:54:49;38.70;;;19.65;;
29728;SDS011;20055;51.498;11.960;2024-01-06T12:57:16;36.42;;;19.50;;
29728;SDS011;20055;51.498;11.960;2024-01-06T12:59:42;40.08;;;20.20;;
29728;SDS011;20055;51.498;11.960;2024-01-06T13:02:08;43.45;;;21.70;;
29728;SDS011;20055;51.498;11.960;2024-01-06T13:04:35;38.40;;;19.60;;
29728;SDS011;20055;51.498;11.960;2024-01-06T13:07:01;37.38;;;18.80;;
29728;SDS011;20055;51.498;11.960;2024-01-06T13:09:28;39.95;;;20.63;;
29728;SDS011;20055;51.498;11.960;2024-01-06T13:11:55;49.35;;;22.27;;
29728;SDS011;20055;51.498;11.960;2024-01-06T13:14:28;38.17;;;20.20;;
29728;SDS011;20055;51.498;11.960;2024-01-06T13:16:55;40.22;;;20.83;;
29728;SDS011;20055;51.498;11.960;2024-01-06T13:19:22;44.67;;;22.67;;
29728;SDS011;20055;51.498;11.960;2024-01-06T13:21:49;42.60;;;23.30;;
29728;SDS011;20055;51.498;11.960;2024-01-06T13:24:15;38.80;;;21.77;;
29728;SDS011;20055;51.498;11.960;2024-01-06T13:26:41;43.65;;;21.85;;
29728;SDS011;20055;51.498;11.960;2024-01-06T13:29:07;49.97;;;25.55;;
29728;SDS011;20055;51.498;11.960;2024-01-06T13:31:34;48.35;;;25.13;;
29728;SDS011;20055;51.498;11.960;2024-01-06T13:34:00;50.42;;;25.00;;
29728;SDS011;20055;51.498;11.960;2024-01-06T13:36:26;47.03;;;24.50;;
29728;SDS011;20055;51.498;11.960;2024-01-06T13:38:53;50.40;;;24.80;;
29728;SDS011;20055;51.498;11.960;2024-01-06T13:41:19;49.95;;;25.50;;
29728;SDS011;20055;51.498;11.960;2024-01-06T13:43:47;48.38;;;23.48;;
29728;SDS011;20055;51.498;11.960;2024-01-06T13:46:13;44.75;;;22.17;;
29728;SDS011;20055;51.498;11.960;2024-01-06T13:48:40;44.03;;;23.15;;
29728;SDS011;20055;51.498;11.960;2024-01-06T13:51:06;47.97;;;25.02;;
29728;SDS011;20055;51.498;11.960;2024-01-06T13:53:33;48.10;;;24.23;;
29728;SDS011;20055;51.498;11.960;2024-01-06T13:55:59;50.92;;;25.55;;
29728;SDS011;20055;51.498;11.960;2024-01-06T13:58:26;49.80;;;25.98;;
29728;SDS011;20055;51.498;11.960;2024-01-06T14:00:53;48.72;;;24.08;;
29728;SDS011;20055;51.498;11.960;2024-01-06T14:03:19;47.50;;;24.00;;
29728;SDS011;20055;51.498;11.960;2024-01-06T14:05:47;51.03;;;23.98;;
29728;SDS011;20055;51.498;11.960;2024-01-06T14:08:14;47.78;;;23.40;;
29728;SDS011;20055;51.498;11.960;2024-01-06T14:10:40;54.15;;;24.38;;
29728;SDS011;20055;51.498;11.960;2024-01-06T14:13:06;49.13;;;24.10;;
29728;SDS011;20055;51.498;11.960;2024-01-06T14:15:33;52.95;;;25.52;;
29728;SDS011;20055;51.498;11.960;2024-01-06T14:18:02;59.85;;;28.95;;
29728;SDS011;20055;51.498;11.960;2024-01-06T14:20:29;62.85;;;28.05;;
29728;SDS011;20055;51.498;11.960;2024-01-06T14:22:57;61.83;;;27.73;;
29728;SDS011;20055;51.498;11.960;2024-01-06T14:25:24;66.50;;;27.90;;